sensor_id;sensor_type;location;lat;lon;timestamp;pressure;altitude;pressure_sealevel;temperature;humidity
38780;BME280;29273;49.962;9.768;2023-04-28T00:00:07;99726.03;;;14.36;44.18
38780;BME280;29273;49.962;9.768;2023-04-28T00:02:33;99726.03;;;14.36;44.51
38780;BME280;29273;49.962;9.768;2023-04-28T00:04:58;99726.50;;;14.33;44.41
38780;BME280;29273;49.962;9.768;2023-04-28T00:07:24;99716.84;;;14.32;44.13
38780;BME280;29273;49.962;9.768;2023-04-28T00:09:49;99718.72;;;14.31;44.46
38780;BME280;29273;49.962;9.768;2023-04-28T00:12:15;99714.66;;;14.29;44.62
38780;BME280;29273;49.962;9.768;2023-04-28T00:14:40;99703.41;;;14.27;44.92
38780;BME280;29273;49.962;9.768;2023-04-28T00:17:06;99699.38;;;14.24;44.52
38780;BME280;29273;49.962;9.768;2023-04-28T00:19:31;99703.06;;;14.23;44.00
38780;BME280;29273;49.962;9.768;2023-04-28T00:21:57;99706.75;;;14.22;44.28
38780;BME280;29273;49.962;9.768;2023-04-28T00:24:22;99698.19;;;14.20;44.50
38780;BME280;29273;49.962;9.768;2023-04-28T00:26:48;99697.38;;;14.19;44.67
38780;BME280;29273;49.962;9.768;2023-04-28T00:29:13;99693.31;;;14.17;44.79
38780;BME280;29273;49.962;9.768;2023-04-28T00:31:39;99688.22;;;14.15;44.30
38780;BME280;29273;49.962;9.768;2023-04-28T00:34:04;99690.06;;;14.15;44.48
38780;BME280;29273;49.962;9.768;2023-04-28T00:36:30;99682.31;;;14.13;44.54
38780;BME280;29273;49.962;9.768;2023-04-28T00:38:57;99685.78;;;14.14;44.84
38780;BME280;29273;49.962;9.768;2023-04-28T00:41:23;99682.75;;;14.10;45.00
38780;BME280;29273;49.962;9.768;2023-04-28T00:43:49;99680.31;;;14.09;44.96
38780;BME280;29273;49.962;9.768;2023-04-28T00:46:25;99677.22;;;14.12;43.59
38780;BME280;29273;49.962;9.768;2023-04-28T00:48:52;99680.19;;;14.03;45.20
38780;BME280;29273;49.962;9.768;2023-04-28T00:51:18;99675.09;;;14.02;45.12
38780;BME280;29273;49.962;9.768;2023-04-28T00:53:44;99670.00;;;14.00;44.78
38780;BME280;29273;49.962;9.768;2023-04-28T00:56:09;99666.75;;;13.98;44.88
38780;BME280;29273;49.962;9.768;2023-04-28T00:58:36;99672.09;;;13.98;44.66
38780;BME280;29273;49.962;9.768;2023-04-28T01:01:06;99670.00;;;14.00;44.27
38780;BME280;29273;49.962;9.768;2023-04-28T01:03:36;99665.94;;;13.98;44.46
38780;BME280;29273;49.962;9.768;2023-04-28T01:06:07;99656.09;;;13.98;43.93
38780;BME280;29273;49.962;9.768;2023-04-28T01:08:35;99650.44;;;13.95;44.50
38780;BME280;29273;49.962;9.768;2023-04-28T01:11:04;99657.00;;;13.92;45.28
38780;BME280;29273;49.962;9.768;2023-04-28T01:13:53;99637.00;;;13.90;45.51
38780;BME280;29273;49.962;9.768;2023-04-28T01:16:21;99638.84;;;13.89;45.36
38780;BME280;29273;49.962;9.768;2023-04-28T01:18:47;99639.88;;;13.88;45.36
38780;BME280;29273;49.962;9.768;2023-04-28T01:21:13;99633.75;;;13.87;45.42
38780;BME280;29273;49.962;9.768;2023-04-28T01:23:40;99632.13;;;13.86;45.84
38780;BME280;29273;49.962;9.768;2023-04-28T01:26:05;99636.88;;;13.84;45.81
38780;BME280;29273;49.962;9.768;2023-04-28T01:28:32;99637.66;;;13.85;45.60
38780;BME280;29273;49.962;9.768;2023-04-28T01:30:57;99640.56;;;13.83;46.10
38780;BME280;29273;49.962;9.768;2023-04-28T01:33:23;99637.31;;;13.81;46.40
38780;BME280;29273;49.962;9.768;2023-04-28T01:35:48;99629.78;;;13.78;46.53
38780;BME280;29273;49.962;9.768;2023-04-28T01:38:15;99622.00;;;13.77;46.46
38780;BME280;29273;49.962;9.768;2023-04-28T01:40:40;99620.41;;;13.76;46.56
38780;BME280;29273;49.962;9.768;2023-04-28T01:43:06;99615.31;;;13.74;46.47
38780;BME280;29273;49.962;9.768;2023-04-28T01:45:31;99625.97;;;13.74;46.48
38780;BME280;29273;49.962;9.768;2023-04-28T01:47:57;99623.28;;;13.74;46.13
38780;BME280;29273;49.962;9.768;2023-04-28T01:50:23;99623.53;;;13.73;46.62
38780;BME280;29273;49.962;9.768;2023-04-28T01:52:48;99614.97;;;13.71;46.30
38780;BME280;29273;49.962;9.768;2023-04-28T01:55:14;99605.34;;;13.69;46.74
38780;BME280;29273;49.962;9.768;2023-04-28T01:57:40;99610.66;;;13.69;47.15
38780;BME280;29273;49.962;9.768;2023-04-28T02:00:06;99610.88;;;13.68;46.73
38780;BME280;29273;49.962;9.768;2023-04-28T02:02:35;99615.41;;;13.67;46.71
38780;BME280;29273;49.962;9.768;2023-04-28T02:05:01;99607.44;;;13.67;46.92
38780;BME280;29273;49.962;9.768;2023-04-28T02:07:26;99610.09;;;13.67;47.04
38780;BME280;29273;49.962;9.768;2023-04-28T02:09:52;99597.81;;;13.66;47.30
38780;BME280;29273;49.962;9.768;2023-04-28T02:12:17;99605.78;;;13.66;47.40
38780;BME280;29273;49.962;9.768;2023-04-28T02:14:43;99602.09;;;13.67;47.70
38780;BME280;29273;49.962;9.768;2023-04-28T02:17:08;99601.28;;;13.67;47.67
38780;BME280;29273;49.962;9.768;2023-04-28T02:19:34;99598.38;;;13.68;47.16
38780;BME280;29273;49.962;9.768;2023-04-28T02:21:59;99594.13;;;13.67;47.31
38780;BME280;29273;49.962;9.768;2023-04-28T02:24:25;99579.75;;;13.68;47.46
38780;BME280;29273;49.962;9.768;2023-04-28T02:26:50;99580.38;;;13.71;47.40
38780;BME280;29273;49.962;9.768;2023-04-28T02:29:16;99575.03;;;13.71;47.89
38780;BME280;29273;49.962;9.768;2023-04-28T02:31:42;99575.84;;;13.71;47.36
38780;BME280;29273;49.962;9.768;2023-04-28T02:34:07;99572.97;;;13.73;46.99
38780;BME280;29273;49.962;9.768;2023-04-28T02:36:33;99571.91;;;13.74;46.46
38780;BME280;29273;49.962;9.768;2023-04-28T02:38:59;99572.97;;;13.73;46.67
38780;BME280;29273;49.962;9.768;2023-04-28T02:41:25;99562.53;;;13.71;46.76
38780;BME280;29273;49.962;9.768;2023-04-28T02:43:51;99557.22;;;13.71;46.48
38780;BME280;29273;49.962;9.768;2023-04-28T02:46:16;99557.22;;;13.71;47.60
38780;BME280;29273;49.962;9.768;2023-04-28T02:48:42;99555.59;;;13.70;47.19
38780;BME280;29273;49.962;9.768;2023-04-28T02:51:09;99550.25;;;13.70;46.61
38780;BME280;29273;49.962;9.768;2023-04-28T02:53:35;99552.13;;;13.69;46.72
38780;BME280;29273;49.962;9.768;2023-04-28T02:56:00;99547.81;;;13.68;46.78
38780;BME280;29273;49.962;9.768;2023-04-28T02:58:29;99549.47;;;13.69;46.42
38780;BME280;29273;49.962;9.768;2023-04-28T03:00:54;99547.81;;;13.68;46.80
38780;BME280;29273;49.962;9.768;2023-04-28T03:03:19;99544.38;;;13.68;47.20
38780;BME280;29273;49.962;9.768;2023-04-28T03:05:45;99551.53;;;13.67;47.20
38780;BME280;29273;49.962;9.768;2023-04-28T03:08:11;99558.91;;;13.65;47.54
38780;BME280;29273;49.962;9.768;2023-04-28T03:10:36;99558.13;;;13.65;47.69
38780;BME280;29273;49.962;9.768;2023-04-28T03:13:02;99560.78;;;13.65;48.02
38780;BME280;29273;49.962;9.768;2023-04-28T03:15:29;99549.56;;;13.63;47.83
38780;BME280;29273;49.962;9.768;2023-04-28T03:17:54;99556.75;;;13.62;48.04
38780;BME280;29273;49.962;9.768;2023-04-28T03:20:20;99554.31;;;13.61;47.93
38780;BME280;29273;49.962;9.768;2023-04-28T03:22:45;99555.34;;;13.60;48.00
38780;BME280;29273;49.962;9.768;2023-04-28T03:25:11;99553.47;;;13.60;48.47
38780;BME280;29273;49.962;9.768;2023-04-28T03:27:45;99554.88;;;13.63;48.64
38780;BME280;29273;49.962;9.768;2023-04-28T03:30:10;99562.06;;;13.62;48.78
38780;BME280;29273;49.962;9.768;2023-04-28T03:32:36;99553.84;;;13.64;49.12
38780;BME280;29273;49.962;9.768;2023-04-28T03:35:02;99552.78;;;13.65;49.43
38780;BME280;29273;49.962;9.768;2023-04-28T03:37:27;99552.78;;;13.65;49.75
38780;BME280;29273;49.962;9.768;2023-04-28T03:39:53;99546.44;;;13.66;49.87
38780;BME280;29273;49.962;9.768;2023-04-28T03:42:18;99537.63;;;13.65;50.40
38780;BME280;29273;49.962;9.768;2023-04-28T03:44:55;99542.16;;;13.65;50.83
38780;BME280;29273;49.962;9.768;2023-04-28T03:47:21;99540.56;;;13.64;50.88
38780;BME280;29273;49.962;9.768;2023-04-28T03:49:46;99535.44;;;13.62;50.92
38780;BME280;29273;49.962;9.768;2023-04-28T03:52:12;99526.06;;;13.60;51.29
38780;BME280;29273;49.962;9.768;2023-04-28T03:54:38;99526.50;;;13.57;51.18
38780;BME280;29273;49.962;9.768;2023-04-28T03:57:03;99526.50;;;13.57;51.59
38780;BME280;29273;49.962;9.768;2023-04-28T03:59:31;99532.06;;;13.55;51.46
38780;BME280;29273;49.962;9.768;2023-04-28T04:01:57;99541.09;;;13.54;51.50
38780;BME280;29273;49.962;9.768;2023-04-28T04:04:22;99545.38;;;13.55;51.78
38780;BME280;29273;49.962;9.768;2023-04-28T04:06:48;99544.56;;;13.55;51.86
38780;BME280;29273;49.962;9.768;2023-04-28T04:09:13;99541.91;;;13.55;51.70
38780;BME280;29273;49.962;9.768;2023-04-28T04:11:39;99548.25;;;13.54;51.85
38780;BME280;29273;49.962;9.768;2023-04-28T04:14:05;99535.16;;;13.52;52.26
38780;BME280;29273;49.962;9.768;2023-04-28T04:16:31;99524.75;;;13.50;52.51
38780;BME280;29273;49.962;9.768;2023-04-28T04:18:57;99519.44;;;13.50;52.68
38780;BME280;29273;49.962;9.768;2023-04-28T04:21:29;99515.16;;;13.49;52.99
38780;BME280;29273;49.962;9.768;2023-04-28T04:23:56;99518.63;;;13.50;53.05
38780;BME280;29273;49.962;9.768;2023-04-28T04:26:22;99510.88;;;13.48;53.12
38780;BME280;29273;49.962;9.768;2023-04-28T04:28:49;99505.34;;;13.50;52.88
38780;BME280;29273;49.962;9.768;2023-04-28T04:31:14;99505.56;;;13.48;52.66
38780;BME280;29273;49.962;9.768;2023-04-28T04:33:40;99501.88;;;13.49;52.46
38780;BME280;29273;49.962;9.768;2023-04-28T04:36:06;99498.41;;;13.49;52.84
38780;BME280;29273;49.962;9.768;2023-04-28T04:38:32;99502.91;;;13.48;52.89
38780;BME280;29273;49.962;9.768;2023-04-28T04:41:04;99501.06;;;13.49;52.76
38780;BME280;29273;49.962;9.768;2023-04-28T04:43:30;99496.19;;;13.46;52.27
38780;BME280;29273;49.962;9.768;2023-04-28T04:45:55;99489.03;;;13.46;52.14
38780;BME280;29273;49.962;9.768;2023-04-28T04:48:21;99488.22;;;13.46;52.44
38780;BME280;29273;49.962;9.768;2023-04-28T04:50:46;99485.56;;;13.46;52.72
38780;BME280;29273;49.962;9.768;2023-04-28T04:53:12;99485.56;;;13.46;52.57
38780;BME280;29273;49.962;9.768;2023-04-28T04:55:37;99480.25;;;13.46;52.51
38780;BME280;29273;49.962;9.768;2023-04-28T04:58:03;99478.38;;;13.46;53.04
38780;BME280;29273;49.962;9.768;2023-04-28T05:00:47;99470.63;;;13.45;52.37
38780;BME280;29273;49.962;9.768;2023-04-28T05:03:13;99470.06;;;13.43;52.72
38780;BME280;29273;49.962;9.768;2023-04-28T05:05:40;99472.72;;;13.43;52.74
38780;BME280;29273;49.962;9.768;2023-04-28T05:08:18;99480.13;;;13.41;52.62
38780;BME280;29273;49.962;9.768;2023-04-28T05:10:44;99474.78;;;13.41;52.31
38780;BME280;29273;49.962;9.768;2023-04-28T05:13:10;99473.16;;;13.40;52.82
38780;BME280;29273;49.962;9.768;2023-04-28T05:15:36;99473.16;;;13.40;52.39
38780;BME280;29273;49.962;9.768;2023-04-28T05:18:14;99476.63;;;13.40;52.25
38780;BME280;29273;49.962;9.768;2023-04-28T05:20:40;99479.28;;;13.40;53.24
38780;BME280;29273;49.962;9.768;2023-04-28T05:23:05;99473.75;;;13.42;52.60
38780;BME280;29273;49.962;9.768;2023-04-28T05:25:31;99478.25;;;13.41;52.66
38780;BME280;29273;49.962;9.768;2023-04-28T05:27:57;99471.91;;;13.42;53.04
38780;BME280;29273;49.962;9.768;2023-04-28T05:30:23;99473.75;;;13.42;53.11
38780;BME280;29273;49.962;9.768;2023-04-28T05:32:49;99474.56;;;13.42;53.09
38780;BME280;29273;49.962;9.768;2023-04-28T05:35:15;99478.25;;;13.41;53.26
38780;BME280;29273;49.962;9.768;2023-04-28T05:37:41;99481.16;;;13.40;53.47
38780;BME280;29273;49.962;9.768;2023-04-28T05:40:09;99487.25;;;13.40;53.58
38780;BME280;29273;49.962;9.768;2023-04-28T05:42:34;99489.94;;;13.40;53.75
38780;BME280;29273;49.962;9.768;2023-04-28T05:45:00;99496.88;;;13.41;53.64
38780;BME280;29273;49.962;9.768;2023-04-28T05:47:27;99490.75;;;13.41;53.36
38780;BME280;29273;49.962;9.768;2023-04-28T05:49:54;99486.25;;;13.41;53.54
38780;BME280;29273;49.962;9.768;2023-04-28T05:52:20;99476.63;;;13.40;52.70
38780;BME280;29273;49.962;9.768;2023-04-28T05:54:45;99475.59;;;13.41;52.83
38780;BME280;29273;49.962;9.768;2023-04-28T05:57:11;99480.13;;;13.41;52.47
38780;BME280;29273;49.962;9.768;2023-04-28T05:59:37;99488.09;;;13.41;52.62
38780;BME280;29273;49.962;9.768;2023-04-28T06:02:03;99480.91;;;13.41;52.33
38780;BME280;29273;49.962;9.768;2023-04-28T06:04:28;99485.44;;;13.41;52.06
38780;BME280;29273;49.962;9.768;2023-04-28T06:06:54;99489.69;;;13.42;52.36
38780;BME280;29273;49.962;9.768;2023-04-28T06:09:19;99485.22;;;13.42;52.57
38780;BME280;29273;49.962;9.768;2023-04-28T06:11:45;99483.34;;;13.43;52.33
38780;BME280;29273;49.962;9.768;2023-04-28T06:14:11;99483.56;;;13.41;52.54
38780;BME280;29273;49.962;9.768;2023-04-28T06:16:36;99483.34;;;13.43;52.04
38780;BME280;29273;49.962;9.768;2023-04-28T06:19:02;99489.47;;;13.43;52.58
38780;BME280;29273;49.962;9.768;2023-04-28T06:21:28;99497.44;;;13.43;52.73
38780;BME280;29273;49.962;9.768;2023-04-28T06:23:53;99504.63;;;13.43;52.39
38780;BME280;29273;49.962;9.768;2023-04-28T06:26:19;99502.78;;;13.43;52.25
38780;BME280;29273;49.962;9.768;2023-04-28T06:28:44;99502.78;;;13.43;51.93
38780;BME280;29273;49.962;9.768;2023-04-28T06:31:10;99510.75;;;13.43;52.24
38780;BME280;29273;49.962;9.768;2023-04-28T06:33:35;99509.16;;;13.42;52.21
38780;BME280;29273;49.962;9.768;2023-04-28T06:36:01;99508.31;;;13.42;52.65
38780;BME280;29273;49.962;9.768;2023-04-28T06:38:26;99515.50;;;13.41;52.63
38780;BME280;29273;49.962;9.768;2023-04-28T06:40:52;99513.88;;;13.40;52.75
38780;BME280;29273;49.962;9.768;2023-04-28T06:43:18;99521.84;;;13.40;52.62
38780;BME280;29273;49.962;9.768;2023-04-28T06:45:54;99518.59;;;13.38;52.53
38780;BME280;29273;49.962;9.768;2023-04-28T06:48:22;99516.97;;;13.37;52.82
38780;BME280;29273;49.962;9.768;2023-04-28T06:50:50;99513.50;;;13.37;53.16
38780;BME280;29273;49.962;9.768;2023-04-28T06:53:16;99502.06;;;13.36;53.77
38780;BME280;29273;49.962;9.768;2023-04-28T06:55:41;99496.97;;;13.35;53.81
38780;BME280;29273;49.962;9.768;2023-04-28T06:58:07;99494.31;;;13.35;52.96
38780;BME280;29273;49.962;9.768;2023-04-28T07:00:33;99490.84;;;13.34;53.35
38780;BME280;29273;49.962;9.768;2023-04-28T07:02:58;99486.56;;;13.33;53.70
38780;BME280;29273;49.962;9.768;2023-04-28T07:05:24;99492.06;;;13.31;53.64
38780;BME280;29273;49.962;9.768;2023-04-28T07:07:49;99493.94;;;13.31;53.72
38780;BME280;29273;49.962;9.768;2023-04-28T07:10:15;99507.22;;;13.31;53.73
38780;BME280;29273;49.962;9.768;2023-04-28T07:12:40;99511.72;;;13.30;53.98
38780;BME280;29273;49.962;9.768;2023-04-28T07:15:06;99511.72;;;13.30;54.19
38780;BME280;29273;49.962;9.768;2023-04-28T07:17:32;99494.97;;;13.30;54.61
38780;BME280;29273;49.962;9.768;2023-04-28T07:19:57;99491.28;;;13.31;54.23
38780;BME280;29273;49.962;9.768;2023-04-28T07:22:23;99504.56;;;13.31;54.68
38780;BME280;29273;49.962;9.768;2023-04-28T07:24:48;99510.69;;;13.31;54.59
38780;BME280;29273;49.962;9.768;2023-04-28T07:27:14;99515.03;;;13.32;54.87
38780;BME280;29273;49.962;9.768;2023-04-28T07:29:39;99507.84;;;13.33;54.39
38780;BME280;29273;49.962;9.768;2023-04-28T07:32:05;99510.50;;;13.33;54.80
38780;BME280;29273;49.962;9.768;2023-04-28T07:34:33;99509.47;;;13.34;54.62
38780;BME280;29273;49.962;9.768;2023-04-28T07:37:00;99507.84;;;13.33;54.98
38780;BME280;29273;49.962;9.768;2023-04-28T07:39:26;99504.38;;;13.32;55.06
38780;BME280;29273;49.962;9.768;2023-04-28T07:41:51;99508.63;;;13.33;55.12
38780;BME280;29273;49.962;9.768;2023-04-28T07:44:17;99498.00;;;13.33;55.09
38780;BME280;29273;49.962;9.768;2023-04-28T07:46:42;99504.97;;;13.35;54.99
38780;BME280;29273;49.962;9.768;2023-04-28T07:49:08;99508.41;;;13.35;55.18
38780;BME280;29273;49.962;9.768;2023-04-28T07:51:34;99509.25;;;13.36;55.14
38780;BME280;29273;49.962;9.768;2023-04-28T07:53:59;99492.00;;;13.38;55.53
38780;BME280;29273;49.962;9.768;2023-04-28T07:56:25;99489.13;;;13.40;55.86
38780;BME280;29273;49.962;9.768;2023-04-28T07:58:51;99493.41;;;13.41;55.49
38780;BME280;29273;49.962;9.768;2023-04-28T08:01:16;99487.88;;;13.42;55.60
38780;BME280;29273;49.962;9.768;2023-04-28T08:03:42;99490.28;;;13.44;55.84
38780;BME280;29273;49.962;9.768;2023-04-28T08:06:07;99492.72;;;13.45;55.74
38780;BME280;29273;49.962;9.768;2023-04-28T08:08:33;99486.38;;;13.46;55.47
38780;BME280;29273;49.962;9.768;2023-04-28T08:10:59;99498.41;;;13.49;55.70
38780;BME280;29273;49.962;9.768;2023-04-28T08:13:24;99489.38;;;13.50;56.16
38780;BME280;29273;49.962;9.768;2023-04-28T08:15:51;99488.13;;;13.53;55.52
38780;BME280;29273;49.962;9.768;2023-04-28T08:18:16;99495.03;;;13.54;56.45
38780;BME280;29273;49.962;9.768;2023-04-28T08:20:42;99503.16;;;13.59;56.03
38780;BME280;29273;49.962;9.768;2023-04-28T08:23:08;99489.38;;;13.62;56.22
38780;BME280;29273;49.962;9.768;2023-04-28T08:25:34;99480.16;;;13.64;55.98
38780;BME280;29273;49.962;9.768;2023-04-28T08:27:59;99472.50;;;13.68;56.27
38780;BME280;29273;49.962;9.768;2023-04-28T08:30:25;99467.53;;;13.72;56.72
38780;BME280;29273;49.962;9.768;2023-04-28T08:32:50;99467.09;;;13.75;56.59
38780;BME280;29273;49.962;9.768;2023-04-28T08:35:16;99478.06;;;13.78;56.58
38780;BME280;29273;49.962;9.768;2023-04-28T08:37:41;99474.94;;;13.81;56.24
38780;BME280;29273;49.962;9.768;2023-04-28T08:40:07;99462.00;;;13.85;55.83
38780;BME280;29273;49.962;9.768;2023-04-28T08:42:36;99446.34;;;13.88;56.36
38780;BME280;29273;49.962;9.768;2023-04-28T08:45:03;99433.38;;;13.92;56.37
38780;BME280;29273;49.962;9.768;2023-04-28T08:47:34;99442.31;;;13.98;55.61
38780;BME280;29273;49.962;9.768;2023-04-28T08:50:04;99451.44;;;14.02;55.28
38780;BME280;29273;49.962;9.768;2023-04-28T08:52:30;99451.91;;;13.99;57.20
38780;BME280;29273;49.962;9.768;2023-04-28T08:55:00;99455.03;;;14.07;55.92
38780;BME280;29273;49.962;9.768;2023-04-28T09:00:05;99455.63;;;14.10;57.36
38780;BME280;29273;49.962;9.768;2023-04-28T09:02:31;99458.84;;;14.12;56.77
38780;BME280;29273;49.962;9.768;2023-04-28T09:04:57;99465.56;;;14.14;57.06
38780;BME280;29273;49.962;9.768;2023-04-28T09:07:23;99469.03;;;14.15;56.67
38780;BME280;29273;49.962;9.768;2023-04-28T09:09:48;99464.28;;;14.17;56.82
38780;BME280;29273;49.962;9.768;2023-04-28T09:12:14;99464.06;;;14.18;57.04
38780;BME280;29273;49.962;9.768;2023-04-28T09:14:40;99474.47;;;14.20;56.87
38780;BME280;29273;49.962;9.768;2023-04-28T09:17:11;99470.88;;;14.26;55.93
38780;BME280;29273;49.962;9.768;2023-04-28T09:19:37;99467.06;;;14.22;56.63
38780;BME280;29273;49.962;9.768;2023-04-28T09:22:04;99462.56;;;14.22;57.19
38780;BME280;29273;49.962;9.768;2023-04-28T09:24:33;99464.16;;;14.23;57.39
38780;BME280;29273;49.962;9.768;2023-04-28T09:27:02;99463.34;;;14.23;57.14
38780;BME280;29273;49.962;9.768;2023-04-28T09:29:29;99463.13;;;14.24;57.32
38780;BME280;29273;49.962;9.768;2023-04-28T09:32:24;99460.69;;;14.23;55.17
38780;BME280;29273;49.962;9.768;2023-04-28T09:34:53;99465.09;;;14.29;56.86
38780;BME280;29273;49.962;9.768;2023-04-28T09:37:22;99464.88;;;14.31;57.60
38780;BME280;29273;49.962;9.768;2023-04-28T09:39:50;99460.09;;;14.33;57.14
38780;BME280;29273;49.962;9.768;2023-04-28T09:42:42;99463.09;;;14.36;55.42
38780;BME280;29273;49.962;9.768;2023-04-28T09:45:12;99451.88;;;14.34;56.82
38780;BME280;29273;49.962;9.768;2023-04-28T09:47:43;99456.50;;;14.39;56.38
38780;BME280;29273;49.962;9.768;2023-04-28T09:50:10;99454.88;;;14.38;56.88
38780;BME280;29273;49.962;9.768;2023-04-28T09:52:42;99452.69;;;14.35;56.97
38780;BME280;29273;49.962;9.768;2023-04-28T09:55:10;99448.75;;;14.37;56.69
38780;BME280;29273;49.962;9.768;2023-04-28T09:57:37;99451.19;;;14.39;57.49
38780;BME280;29273;49.962;9.768;2023-04-28T10:00:04;99452.88;;;14.45;57.36
38780;BME280;29273;49.962;9.768;2023-04-28T10:02:34;99457.50;;;14.50;57.16
38780;BME280;29273;49.962;9.768;2023-04-28T10:05:00;99455.66;;;14.50;57.65
38780;BME280;29273;49.962;9.768;2023-04-28T10:07:26;99456.00;;;14.54;57.27
38780;BME280;29273;49.962;9.768;2023-04-28T10:09:52;99456.56;;;14.56;57.53
38780;BME280;29273;49.962;9.768;2023-04-28T10:12:22;99447.19;;;14.65;56.23
38780;BME280;29273;49.962;9.768;2023-04-28T10:14:49;99454.59;;;14.63;57.25
38780;BME280;29273;49.962;9.768;2023-04-28T10:17:19;99446.03;;;14.61;57.58
38780;BME280;29273;49.962;9.768;2023-04-28T10:19:46;99460.75;;;14.64;57.68
38780;BME280;29273;49.962;9.768;2023-04-28T10:27:48;99451.94;;;14.63;57.75
38780;BME280;29273;49.962;9.768;2023-04-28T10:30:19;99448.34;;;14.69;56.23
38780;BME280;29273;49.962;9.768;2023-04-28T10:32:46;99448.47;;;14.63;57.50
38780;BME280;29273;49.962;9.768;2023-04-28T10:38:12;99438.16;;;14.66;56.16
38780;BME280;29273;49.962;9.768;2023-04-28T10:43:08;99441.03;;;14.65;57.88
38780;BME280;29273;49.962;9.768;2023-04-28T10:45:58;99434.44;;;14.67;56.63
38780;BME280;29273;49.962;9.768;2023-04-28T10:56:07;99437.38;;;14.83;58.64
38780;BME280;29273;49.962;9.768;2023-04-28T10:58:32;99443.63;;;14.88;58.77
38780;BME280;29273;49.962;9.768;2023-04-28T11:09:03;99430.00;;;15.18;58.67
38780;BME280;29273;49.962;9.768;2023-04-28T11:16:55;99427.22;;;15.42;56.91
38780;BME280;29273;49.962;9.768;2023-04-28T11:21:55;99425.97;;;15.50;58.40
38780;BME280;29273;49.962;9.768;2023-04-28T11:24:24;99427.19;;;15.59;57.62
38780;BME280;29273;49.962;9.768;2023-04-28T11:26:50;99421.03;;;15.59;58.65
38780;BME280;29273;49.962;9.768;2023-04-28T11:29:17;99422.72;;;15.65;58.02
38780;BME280;29273;49.962;9.768;2023-04-28T11:31:49;99415.72;;;15.76;57.27
38780;BME280;29273;49.962;9.768;2023-04-28T11:34:18;99418.72;;;15.79;57.78
38780;BME280;29273;49.962;9.768;2023-04-28T11:36:45;99418.16;;;15.77;58.53
38780;BME280;29273;49.962;9.768;2023-04-28T11:39:11;99417.16;;;15.83;58.16
38780;BME280;29273;49.962;9.768;2023-04-28T11:41:44;99422.31;;;15.90;58.25
38780;BME280;29273;49.962;9.768;2023-04-28T11:46:53;99423.91;;;16.08;57.80
38780;BME280;29273;49.962;9.768;2023-04-28T11:49:25;99415.66;;;16.09;58.14
38780;BME280;29273;49.962;9.768;2023-04-28T11:51:55;99412.53;;;16.18;58.08
38780;BME280;29273;49.962;9.768;2023-04-28T11:54:22;99422.25;;;16.24;58.05
38780;BME280;29273;49.962;9.768;2023-04-28T11:56:48;99411.63;;;16.29;57.64
38780;BME280;29273;49.962;9.768;2023-04-28T11:59:13;99409.81;;;16.35;57.63
38780;BME280;29273;49.962;9.768;2023-04-28T12:01:50;99412.34;;;16.46;56.58
38780;BME280;29273;49.962;9.768;2023-04-28T12:06:58;99408.72;;;16.58;56.89
38780;BME280;29273;49.962;9.768;2023-04-28T12:09:24;99406.56;;;16.55;57.68
38780;BME280;29273;49.962;9.768;2023-04-28T12:11:58;99401.06;;;16.67;56.87
38780;BME280;29273;49.962;9.768;2023-04-28T12:14:24;99408.28;;;16.66;57.54
38780;BME280;29273;49.962;9.768;2023-04-28T12:16:50;99412.88;;;16.71;57.51
38780;BME280;29273;49.962;9.768;2023-04-28T12:19:16;99406.78;;;16.75;56.96
38780;BME280;29273;49.962;9.768;2023-04-28T12:21:58;99406.66;;;16.87;56.31
38780;BME280;29273;49.962;9.768;2023-04-28T12:24:24;99407.97;;;16.85;57.39
38780;BME280;29273;49.962;9.768;2023-04-28T12:26:51;99402.66;;;16.90;57.35
38780;BME280;29273;49.962;9.768;2023-04-28T12:29:39;99405.94;;;16.97;56.38
38780;BME280;29273;49.962;9.768;2023-04-28T12:32:09;99407.00;;;16.96;57.32
38780;BME280;29273;49.962;9.768;2023-04-28T12:34:38;99409.19;;;16.99;57.11
38780;BME280;29273;49.962;9.768;2023-04-28T12:37:07;99397.09;;;16.96;56.64
38780;BME280;29273;49.962;9.768;2023-04-28T12:39:37;99402.75;;;17.00;57.21
38780;BME280;29273;49.962;9.768;2023-04-28T12:42:03;99403.31;;;17.02;57.88
38780;BME280;29273;49.962;9.768;2023-04-28T12:44:32;99394.84;;;17.10;56.66
38780;BME280;29273;49.962;9.768;2023-04-28T12:47:02;99396.41;;;17.06;56.74
38780;BME280;29273;49.962;9.768;2023-04-28T12:49:28;99406.31;;;17.06;57.21
38780;BME280;29273;49.962;9.768;2023-04-28T12:51:53;99399.88;;;17.07;57.49
38780;BME280;29273;49.962;9.768;2023-04-28T12:54:19;99398.56;;;17.09;57.47
38780;BME280;29273;49.962;9.768;2023-04-28T12:56:44;99408.75;;;17.12;57.87
38780;BME280;29273;49.962;9.768;2023-04-28T12:59:10;99405.84;;;17.14;57.66
38780;BME280;29273;49.962;9.768;2023-04-28T13:01:36;99404.25;;;17.18;57.70
38780;BME280;29273;49.962;9.768;2023-04-28T13:04:01;99405.63;;;17.20;57.53
38780;BME280;29273;49.962;9.768;2023-04-28T13:06:27;99408.84;;;17.23;57.92
38780;BME280;29273;49.962;9.768;2023-04-28T13:08:53;99408.59;;;17.24;58.05
38780;BME280;29273;49.962;9.768;2023-04-28T13:11:18;99398.69;;;17.25;58.11
38780;BME280;29273;49.962;9.768;2023-04-28T13:13:43;99401.34;;;17.25;57.84
38780;BME280;29273;49.962;9.768;2023-04-28T13:16:09;99394.44;;;17.29;57.77
38780;BME280;29273;49.962;9.768;2023-04-28T13:18:35;99398.47;;;17.31;57.71
38780;BME280;29273;49.962;9.768;2023-04-28T13:21:00;99382.97;;;17.33;58.06
38780;BME280;29273;49.962;9.768;2023-04-28T13:23:26;99369.59;;;17.38;58.31
38780;BME280;29273;49.962;9.768;2023-04-28T13:25:51;99361.06;;;17.42;57.37
38780;BME280;29273;49.962;9.768;2023-04-28T13:28:17;99359.50;;;17.46;57.58
38780;BME280;29273;49.962;9.768;2023-04-28T13:30:43;99360.84;;;17.48;58.40
38780;BME280;29273;49.962;9.768;2023-04-28T13:33:08;99353.94;;;17.52;59.08
38780;BME280;29273;49.962;9.768;2023-04-28T13:35:33;99348.84;;;17.56;59.35
38780;BME280;29273;49.962;9.768;2023-04-28T13:37:59;99355.03;;;17.62;59.27
38780;BME280;29273;49.962;9.768;2023-04-28T13:40:28;99342.50;;;17.67;59.50